sensor_id;sensor_type;location;lat;lon;timestamp;P1;durP1;ratioP1;P2;durP2;ratioP2
61572;SDS011;47465;43.094;12.434;2022-10-03T00:01:49;12.35;;;5.88;;
61572;SDS011;47465;43.094;12.434;2022-10-03T00:04:40;9.05;;;5.70;;
61572;SDS011;47465;43.094;12.434;2022-10-03T00:07:19;8.18;;;5.38;;
61572;SDS011;47465;43.094;12.434;2022-10-03T00:09:58;13.70;;;6.22;;
61572;SDS011;47465;43.094;12.434;2022-10-03T00:12:39;16.83;;;6.50;;
61572;SDS011;47465;43.094;12.434;2022-10-03T00:15:15;11.52;;;5.97;;
61572;SDS011;47465;43.094;12.434;2022-10-03T00:17:49;11.02;;;6.88;;
61572;SDS011;47465;43.094;12.434;2022-10-03T00:24:10;15.13;;;7.05;;
61572;SDS011;47465;43.094;12.434;2022-10-03T00:26:48;18.00;;;7.40;;
61572;SDS011;47465;43.094;12.434;2022-10-03T00:32:47;16.00;;;7.80;;
61572;SDS011;47465;43.094;12.434;2022-10-03T00:38:35;12.65;;;6.97;;
61572;SDS011;47465;43.094;12.434;2022-10-03T00:44:39;14.30;;;7.03;;
61572;SDS011;47465;43.094;12.434;2022-10-03T00:47:30;15.95;;;7.95;;
61572;SDS011;47465;43.094;12.434;2022-10-03T00:50:24;11.85;;;6.57;;
61572;SDS011;47465;43.094;12.434;2022-10-03T00:53:11;11.15;;;6.50;;
61572;SDS011;47465;43.094;12.434;2022-10-03T00:56:01;12.65;;;6.53;;
61572;SDS011;47465;43.094;12.434;2022-10-03T00:58:51;11.23;;;6.63;;
61572;SDS011;47465;43.094;12.434;2022-10-03T01:01:32;15.43;;;6.95;;
61572;SDS011;47465;43.094;12.434;2022-10-03T01:07:02;18.40;;;7.32;;
61572;SDS011;47465;43.094;12.434;2022-10-03T01:09:42;16.40;;;7.30;;
61572;SDS011;47465;43.094;12.434;2022-10-03T01:15:41;13.77;;;6.85;;
61572;SDS011;47465;43.094;12.434;2022-10-03T01:18:18;12.55;;;6.28;;
61572;SDS011;47465;43.094;12.434;2022-10-03T01:27:12;16.10;;;6.63;;
61572;SDS011;47465;43.094;12.434;2022-10-03T01:29:48;13.07;;;6.95;;
61572;SDS011;47465;43.094;12.434;2022-10-03T01:32:54;13.82;;;7.22;;
61572;SDS011;47465;43.094;12.434;2022-10-03T01:35:28;15.90;;;7.10;;
61572;SDS011;47465;43.094;12.434;2022-10-03T01:38:04;16.73;;;7.32;;
61572;SDS011;47465;43.094;12.434;2022-10-03T01:40:46;16.02;;;7.97;;
61572;SDS011;47465;43.094;12.434;2022-10-03T01:46:41;13.20;;;7.13;;
61572;SDS011;47465;43.094;12.434;2022-10-03T01:49:14;16.48;;;7.90;;
61572;SDS011;47465;43.094;12.434;2022-10-03T01:51:47;14.43;;;7.35;;
61572;SDS011;47465;43.094;12.434;2022-10-03T01:54:20;14.63;;;7.40;;
61572;SDS011;47465;43.094;12.434;2022-10-03T01:56:54;15.65;;;8.23;;
61572;SDS011;47465;43.094;12.434;2022-10-03T01:59:29;16.73;;;7.15;;
61572;SDS011;47465;43.094;12.434;2022-10-03T02:02:06;17.90;;;7.55;;
61572;SDS011;47465;43.094;12.434;2022-10-03T02:04:39;14.07;;;7.43;;
61572;SDS011;47465;43.094;12.434;2022-10-03T02:07:11;13.82;;;7.38;;
61572;SDS011;47465;43.094;12.434;2022-10-03T02:09:51;15.82;;;7.80;;
61572;SDS011;47465;43.094;12.434;2022-10-03T02:15:52;10.45;;;6.32;;
61572;SDS011;47465;43.094;12.434;2022-10-03T02:18:22;15.80;;;7.07;;
61572;SDS011;47465;43.094;12.434;2022-10-03T02:21:04;15.50;;;7.30;;
61572;SDS011;47465;43.094;12.434;2022-10-03T02:23:38;13.35;;;7.30;;
61572;SDS011;47465;43.094;12.434;2022-10-03T02:26:17;19.00;;;7.53;;
61572;SDS011;47465;43.094;12.434;2022-10-03T02:28:58;14.45;;;7.35;;
61572;SDS011;47465;43.094;12.434;2022-10-03T02:41:12;18.90;;;8.20;;
61572;SDS011;47465;43.094;12.434;2022-10-03T02:44:14;15.35;;;7.35;;
61572;SDS011;47465;43.094;12.434;2022-10-03T02:50:02;11.80;;;7.55;;
61572;SDS011;47465;43.094;12.434;2022-10-03T02:53:06;13.30;;;6.93;;
61572;SDS011;47465;43.094;12.434;2022-10-03T02:56:10;15.57;;;7.45;;
61572;SDS011;47465;43.094;12.434;2022-10-03T02:59:03;13.05;;;7.18;;
61572;SDS011;47465;43.094;12.434;2022-10-03T03:02:15;15.00;;;7.00;;
61572;SDS011;47465;43.094;12.434;2022-10-03T03:08:31;15.63;;;7.07;;
61572;SDS011;47465;43.094;12.434;2022-10-03T03:14:38;12.60;;;7.57;;
61572;SDS011;47465;43.094;12.434;2022-10-03T03:17:23;15.77;;;7.78;;
61572;SDS011;47465;43.094;12.434;2022-10-03T03:20:01;10.32;;;6.85;;
61572;SDS011;47465;43.094;12.434;2022-10-03T03:22:42;12.95;;;6.90;;
61572;SDS011;47465;43.094;12.434;2022-10-03T03:28:13;13.90;;;7.80;;
61572;SDS011;47465;43.094;12.434;2022-10-03T03:30:54;15.30;;;6.90;;
61572;SDS011;47465;43.094;12.434;2022-10-03T03:33:30;13.95;;;7.00;;
61572;SDS011;47465;43.094;12.434;2022-10-03T03:36:07;23.45;;;7.90;;
61572;SDS011;47465;43.094;12.434;2022-10-03T03:38:41;13.65;;;7.28;;
61572;SDS011;47465;43.094;12.434;2022-10-03T03:41:23;11.82;;;6.63;;
61572;SDS011;47465;43.094;12.434;2022-10-03T03:44:08;17.50;;;7.78;;
61572;SDS011;47465;43.094;12.434;2022-10-03T03:47:02;15.40;;;7.45;;
61572;SDS011;47465;43.094;12.434;2022-10-03T03:49:49;15.40;;;7.18;;
61572;SDS011;47465;43.094;12.434;2022-10-03T03:52:33;17.55;;;7.68;;
61572;SDS011;47465;43.094;12.434;2022-10-03T04:01:56;16.20;;;8.10;;
61572;SDS011;47465;43.094;12.434;2022-10-03T04:04:38;17.77;;;10.18;;
61572;SDS011;47465;43.094;12.434;2022-10-03T04:07:17;24.05;;;9.90;;
61572;SDS011;47465;43.094;12.434;2022-10-03T04:12:41;14.95;;;7.93;;
61572;SDS011;47465;43.094;12.434;2022-10-03T04:15:28;16.17;;;8.40;;
61572;SDS011;47465;43.094;12.434;2022-10-03T04:18:14;19.88;;;9.10;;
61572;SDS011;47465;43.094;12.434;2022-10-03T04:21:33;22.65;;;8.18;;
61572;SDS011;47465;43.094;12.434;2022-10-03T04:24:29;20.48;;;8.02;;
61572;SDS011;47465;43.094;12.434;2022-10-03T04:27:25;20.90;;;8.27;;
61572;SDS011;47465;43.094;12.434;2022-10-03T04:30:13;16.92;;;8.18;;
61572;SDS011;47465;43.094;12.434;2022-10-03T04:32:47;15.45;;;7.53;;
61572;SDS011;47465;43.094;12.434;2022-10-03T04:35:27;15.32;;;7.03;;
61572;SDS011;47465;43.094;12.434;2022-10-03T04:38:17;13.50;;;7.25;;
61572;SDS011;47465;43.094;12.434;2022-10-03T04:40:49;13.63;;;7.55;;
61572;SDS011;47465;43.094;12.434;2022-10-03T04:43:23;14.65;;;7.10;;
61572;SDS011;47465;43.094;12.434;2022-10-03T04:46:03;14.80;;;6.80;;
61572;SDS011;47465;43.094;12.434;2022-10-03T04:48:49;12.90;;;7.35;;
61572;SDS011;47465;43.094;12.434;2022-10-03T04:51:23;16.13;;;8.30;;
61572;SDS011;47465;43.094;12.434;2022-10-03T04:54:02;14.25;;;7.10;;
61572;SDS011;47465;43.094;12.434;2022-10-03T04:56:42;13.30;;;7.57;;
61572;SDS011;47465;43.094;12.434;2022-10-03T05:02:06;16.17;;;6.57;;
61572;SDS011;47465;43.094;12.434;2022-10-03T05:04:46;12.05;;;6.40;;
61572;SDS011;47465;43.094;12.434;2022-10-03T05:07:27;11.50;;;6.40;;
61572;SDS011;47465;43.094;12.434;2022-10-03T05:10:15;14.00;;;6.35;;
61572;SDS011;47465;43.094;12.434;2022-10-03T05:12:53;14.00;;;6.43;;
61572;SDS011;47465;43.094;12.434;2022-10-03T05:15:26;12.10;;;6.25;;
61572;SDS011;47465;43.094;12.434;2022-10-03T05:17:59;11.18;;;6.07;;
61572;SDS011;47465;43.094;12.434;2022-10-03T05:20:43;17.98;;;6.50;;
61572;SDS011;47465;43.094;12.434;2022-10-03T05:23:16;15.73;;;6.03;;
61572;SDS011;47465;43.094;12.434;2022-10-03T05:25:52;11.75;;;6.50;;
61572;SDS011;47465;43.094;12.434;2022-10-03T05:28:29;17.30;;;6.30;;
61572;SDS011;47465;43.094;12.434;2022-10-03T05:31:05;17.27;;;6.70;;
61572;SDS011;47465;43.094;12.434;2022-10-03T05:33:45;12.52;;;6.40;;
61572;SDS011;47465;43.094;12.434;2022-10-03T05:36:24;13.73;;;7.20;;
61572;SDS011;47465;43.094;12.434;2022-10-03T05:42:03;17.58;;;7.40;;
61572;SDS011;47465;43.094;12.434;2022-10-03T05:44:42;14.15;;;6.88;;
61572;SDS011;47465;43.094;12.434;2022-10-03T05:47:16;12.77;;;7.95;;
61572;SDS011;47465;43.094;12.434;2022-10-03T05:50:32;14.50;;;7.60;;
61572;SDS011;47465;43.094;12.434;2022-10-03T05:53:16;17.15;;;7.50;;
61572;SDS011;47465;43.094;12.434;2022-10-03T05:56:03;24.20;;;11.18;;
61572;SDS011;47465;43.094;12.434;2022-10-03T05:58:46;22.10;;;9.13;;
61572;SDS011;47465;43.094;12.434;2022-10-03T06:01:49;16.67;;;8.20;;
61572;SDS011;47465;43.094;12.434;2022-10-03T06:04:38;17.10;;;7.53;;
61572;SDS011;47465;43.094;12.434;2022-10-03T06:07:20;15.98;;;8.65;;
61572;SDS011;47465;43.094;12.434;2022-10-03T06:12:52;19.65;;;10.50;;
61572;SDS011;47465;43.094;12.434;2022-10-03T06:18:40;19.83;;;10.13;;
61572;SDS011;47465;43.094;12.434;2022-10-03T06:24:30;24.98;;;11.73;;
61572;SDS011;47465;43.094;12.434;2022-10-03T06:27:40;26.70;;;11.00;;
61572;SDS011;47465;43.094;12.434;2022-10-03T06:30:27;22.90;;;10.48;;
61572;SDS011;47465;43.094;12.434;2022-10-03T06:39:21;22.00;;;10.77;;
61572;SDS011;47465;43.094;12.434;2022-10-03T06:51:48;18.02;;;10.52;;
61572;SDS011;47465;43.094;12.434;2022-10-03T06:57:41;24.85;;;11.18;;
61572;SDS011;47465;43.094;12.434;2022-10-03T07:00:20;32.45;;;11.55;;
61572;SDS011;47465;43.094;12.434;2022-10-03T07:06:10;26.38;;;11.32;;
61572;SDS011;47465;43.094;12.434;2022-10-03T07:15:07;29.05;;;12.00;;
61572;SDS011;47465;43.094;12.434;2022-10-03T07:21:03;21.17;;;10.00;;
61572;SDS011;47465;43.094;12.434;2022-10-03T07:24:23;22.48;;;10.27;;
61572;SDS011;47465;43.094;12.434;2022-10-03T07:27:15;23.20;;;11.15;;
61572;SDS011;47465;43.094;12.434;2022-10-03T07:30:12;22.52;;;10.02;;
61572;SDS011;47465;43.094;12.434;2022-10-03T07:49:38;16.38;;;7.70;;
61572;SDS011;47465;43.094;12.434;2022-10-03T07:52:27;19.15;;;7.22;;
61572;SDS011;47465;43.094;12.434;2022-10-03T07:55:15;15.20;;;7.43;;
61572;SDS011;47465;43.094;12.434;2022-10-03T07:58:02;15.98;;;7.90;;
61572;SDS011;47465;43.094;12.434;2022-10-03T08:01:04;16.00;;;6.75;;
61572;SDS011;47465;43.094;12.434;2022-10-03T08:06:39;10.97;;;5.33;;
61572;SDS011;47465;43.094;12.434;2022-10-03T08:12:36;8.85;;;4.80;;
61572;SDS011;47465;43.094;12.434;2022-10-03T08:15:21;9.35;;;4.72;;
61572;SDS011;47465;43.094;12.434;2022-10-03T08:18:09;11.40;;;5.03;;
61572;SDS011;47465;43.094;12.434;2022-10-03T08:20:56;11.20;;;4.68;;
61572;SDS011;47465;43.094;12.434;2022-10-03T08:26:16;7.65;;;4.00;;
61572;SDS011;47465;43.094;12.434;2022-10-03T08:32:15;10.50;;;3.83;;
61572;SDS011;47465;43.094;12.434;2022-10-03T08:41:31;12.30;;;4.60;;
61572;SDS011;47465;43.094;12.434;2022-10-03T08:44:32;10.80;;;4.30;;
61572;SDS011;47465;43.094;12.434;2022-10-03T08:47:24;8.25;;;3.90;;
61572;SDS011;47465;43.094;12.434;2022-10-03T08:50:26;9.07;;;3.92;;
61572;SDS011;47465;43.094;12.434;2022-10-03T08:53:15;6.45;;;3.70;;
61572;SDS011;47465;43.094;12.434;2022-10-03T08:56:13;7.55;;;3.88;;
61572;SDS011;47465;43.094;12.434;2022-10-03T08:59:08;7.72;;;4.10;;
61572;SDS011;47465;43.094;12.434;2022-10-03T09:01:58;12.40;;;4.18;;
61572;SDS011;47465;43.094;12.434;2022-10-03T09:05:05;8.98;;;4.10;;
61572;SDS011;47465;43.094;12.434;2022-10-03T09:07:53;8.45;;;3.83;;
61572;SDS011;47465;43.094;12.434;2022-10-03T09:14:03;9.80;;;3.67;;
61572;SDS011;47465;43.094;12.434;2022-10-03T09:20:00;7.78;;;4.15;;
61572;SDS011;47465;43.094;12.434;2022-10-03T09:32:20;7.88;;;3.92;;
61572;SDS011;47465;43.094;12.434;2022-10-03T09:35:29;13.73;;;3.83;;
61572;SDS011;47465;43.094;12.434;2022-10-03T09:38:19;13.90;;;4.00;;
61572;SDS011;47465;43.094;12.434;2022-10-03T09:41:16;10.90;;;3.50;;
61572;SDS011;47465;43.094;12.434;2022-10-03T09:44:11;7.15;;;3.92;;
61572;SDS011;47465;43.094;12.434;2022-10-03T09:46:52;8.15;;;4.07;;
61572;SDS011;47465;43.094;12.434;2022-10-03T09:54:19;6.75;;;3.47;;
61572;SDS011;47465;43.094;12.434;2022-10-03T10:00:16;12.05;;;4.50;;
61572;SDS011;47465;43.094;12.434;2022-10-03T10:02:53;10.88;;;4.38;;
61572;SDS011;47465;43.094;12.434;2022-10-03T10:08:37;9.80;;;4.28;;
61572;SDS011;47465;43.094;12.434;2022-10-03T10:11:25;10.30;;;4.10;;
61572;SDS011;47465;43.094;12.434;2022-10-03T10:14:04;8.35;;;3.95;;
61572;SDS011;47465;43.094;12.434;2022-10-03T10:20:00;11.95;;;5.13;;
61572;SDS011;47465;43.094;12.434;2022-10-03T10:29:07;14.98;;;4.70;;
61572;SDS011;47465;43.094;12.434;2022-10-03T10:38:22;8.57;;;3.95;;
61572;SDS011;47465;43.094;12.434;2022-10-03T10:44:07;7.88;;;4.72;;
61572;SDS011;47465;43.094;12.434;2022-10-03T10:47:11;11.55;;;4.60;;
61572;SDS011;47465;43.094;12.434;2022-10-03T10:50:07;6.93;;;4.50;;
61572;SDS011;47465;43.094;12.434;2022-10-03T11:02:43;9.65;;;4.75;;
61572;SDS011;47465;43.094;12.434;2022-10-03T11:05:41;8.52;;;4.90;;
61572;SDS011;47465;43.094;12.434;2022-10-03T11:11:30;8.70;;;4.97;;
61572;SDS011;47465;43.094;12.434;2022-10-03T11:14:29;7.38;;;4.78;;
61572;SDS011;47465;43.094;12.434;2022-10-03T11:17:27;10.90;;;5.00;;
61572;SDS011;47465;43.094;12.434;2022-10-03T11:20:23;11.02;;;5.63;;
61572;SDS011;47465;43.094;12.434;2022-10-03T11:32:47;8.70;;;5.45;;
61572;SDS011;47465;43.094;12.434;2022-10-03T11:35:56;12.43;;;5.35;;
61572;SDS011;47465;43.094;12.434;2022-10-03T11:38:47;11.40;;;5.90;;
61572;SDS011;47465;43.094;12.434;2022-10-03T11:41:25;10.55;;;5.53;;
61572;SDS011;47465;43.094;12.434;2022-10-03T11:44:17;11.40;;;5.20;;
61572;SDS011;47465;43.094;12.434;2022-10-03T11:46:52;9.82;;;5.18;;
61572;SDS011;47465;43.094;12.434;2022-10-03T11:49:45;9.15;;;5.60;;
61572;SDS011;47465;43.094;12.434;2022-10-03T11:52:30;10.57;;;5.55;;
61572;SDS011;47465;43.094;12.434;2022-10-03T11:55:04;9.18;;;5.22;;
61572;SDS011;47465;43.094;12.434;2022-10-03T11:57:46;10.25;;;5.03;;
61572;SDS011;47465;43.094;12.434;2022-10-03T12:00:20;7.75;;;4.90;;
61572;SDS011;47465;43.094;12.434;2022-10-03T12:02:52;7.93;;;4.63;;
61572;SDS011;47465;43.094;12.434;2022-10-03T12:05:34;9.55;;;4.88;;
61572;SDS011;47465;43.094;12.434;2022-10-03T12:08:16;7.53;;;4.53;;
61572;SDS011;47465;43.094;12.434;2022-10-03T12:11:26;8.25;;;4.50;;
61572;SDS011;47465;43.094;12.434;2022-10-03T12:14:01;9.02;;;4.85;;
61572;SDS011;47465;43.094;12.434;2022-10-03T12:16:43;6.55;;;4.72;;
61572;SDS011;47465;43.094;12.434;2022-10-03T12:19:25;7.95;;;5.15;;
61572;SDS011;47465;43.094;12.434;2022-10-03T12:21:56;10.13;;;4.75;;
61572;SDS011;47465;43.094;12.434;2022-10-03T12:24:30;5.95;;;4.07;;
61572;SDS011;47465;43.094;12.434;2022-10-03T12:27:03;9.38;;;4.57;;
61572;SDS011;47465;43.094;12.434;2022-10-03T12:29:38;9.65;;;4.50;;
61572;SDS011;47465;43.094;12.434;2022-10-03T12:32:15;10.60;;;4.30;;
61572;SDS011;47465;43.094;12.434;2022-10-03T12:34:49;9.30;;;5.18;;
61572;SDS011;47465;43.094;12.434;2022-10-03T12:37:31;9.93;;;4.45;;
61572;SDS011;47465;43.094;12.434;2022-10-03T12:40:07;8.70;;;4.38;;
61572;SDS011;47465;43.094;12.434;2022-10-03T12:42:44;6.75;;;4.32;;
61572;SDS011;47465;43.094;12.434;2022-10-03T12:45:20;6.45;;;4.72;;
61572;SDS011;47465;43.094;12.434;2022-10-03T12:47:59;10.77;;;4.57;;
61572;SDS011;47465;43.094;12.434;2022-10-03T12:50:42;10.90;;;5.18;;
61572;SDS011;47465;43.094;12.434;2022-10-03T12:53:24;7.20;;;4.78;;
61572;SDS011;47465;43.094;12.434;2022-10-03T12:56:03;7.07;;;4.72;;
61572;SDS011;47465;43.094;12.434;2022-10-03T12:58:38;10.60;;;4.70;;
61572;SDS011;47465;43.094;12.434;2022-10-03T13:01:15;8.20;;;4.53;;
61572;SDS011;47465;43.094;12.434;2022-10-03T13:03:52;10.70;;;5.07;;
61572;SDS011;47465;43.094;12.434;2022-10-03T13:06:28;10.65;;;4.50;;
61572;SDS011;47465;43.094;12.434;2022-10-03T13:13:31;13.23;;;5.05;;
61572;SDS011;47465;43.094;12.434;2022-10-03T13:16:12;7.93;;;4.88;;
61572;SDS011;47465;43.094;12.434;2022-10-03T13:18:55;7.13;;;4.15;;
61572;SDS011;47465;43.094;12.434;2022-10-03T13:21:34;7.88;;;4.88;;
61572;SDS011;47465;43.094;12.434;2022-10-03T13:24:20;11.85;;;5.10;;
61572;SDS011;47465;43.094;12.434;2022-10-03T13:26:59;9.90;;;4.60;;
61572;SDS011;47465;43.094;12.434;2022-10-03T13:32:08;9.93;;;4.35;;
61572;SDS011;47465;43.094;12.434;2022-10-03T13:34:55;10.77;;;4.97;;
61572;SDS011;47465;43.094;12.434;2022-10-03T13:38:00;8.55;;;4.68;;
61572;SDS011;47465;43.094;12.434;2022-10-03T13:40:38;7.50;;;4.22;;
61572;SDS011;47465;43.094;12.434;2022-10-03T13:43:11;7.68;;;4.10;;
61572;SDS011;47465;43.094;12.434;2022-10-03T13:45:41;8.98;;;4.07;;
61572;SDS011;47465;43.094;12.434;2022-10-03T13:48:12;6.30;;;4.07;;
61572;SDS011;47465;43.094;12.434;2022-10-03T13:50:47;6.53;;;3.70;;
61572;SDS011;47465;43.094;12.434;2022-10-03T13:53:33;9.95;;;4.95;;
61572;SDS011;47465;43.094;12.434;2022-10-03T13:56:09;8.85;;;4.20;;
61572;SDS011;47465;43.094;12.434;2022-10-03T13:58:41;6.60;;;4.75;;
61572;SDS011;47465;43.094;12.434;2022-10-03T14:01:31;8.70;;;4.10;;
61572;SDS011;47465;43.094;12.434;2022-10-03T14:07:13;14.05;;;5.00;;
61572;SDS011;47465;43.094;12.434;2022-10-03T14:09:55;8.23;;;4.40;;
61572;SDS011;47465;43.094;12.434;2022-10-03T14:12:37;9.00;;;4.40;;
61572;SDS011;47465;43.094;12.434;2022-10-03T14:15:29;6.50;;;4.40;;
61572;SDS011;47465;43.094;12.434;2022-10-03T14:20:37;13.35;;;4.70;;
61572;SDS011;47465;43.094;12.434;2022-10-03T14:23:26;7.25;;;4.82;;
61572;SDS011;47465;43.094;12.434;2022-10-03T14:25:59;9.20;;;4.65;;
61572;SDS011;47465;43.094;12.434;2022-10-03T14:28:31;7.78;;;4.28;;
61572;SDS011;47465;43.094;12.434;2022-10-03T14:31:07;10.25;;;4.35;;
61572;SDS011;47465;43.094;12.434;2022-10-03T14:33:45;7.10;;;4.20;;
61572;SDS011;47465;43.094;12.434;2022-10-03T14:36:19;8.75;;;4.10;;
61572;SDS011;47465;43.094;12.434;2022-10-03T14:39:18;10.77;;;3.85;;
61572;SDS011;47465;43.094;12.434;2022-10-03T14:42:03;8.85;;;3.92;;
61572;SDS011;47465;43.094;12.434;2022-10-03T14:44:40;7.80;;;3.80;;
61572;SDS011;47465;43.094;12.434;2022-10-03T14:47:09;8.00;;;4.50;;
61572;SDS011;47465;43.094;12.434;2022-10-03T14:52:12;6.53;;;3.80;;
61572;SDS011;47465;43.094;12.434;2022-10-03T14:54:48;8.70;;;4.18;;
61572;SDS011;47465;43.094;12.434;2022-10-03T14:57:33;7.40;;;3.95;;
61572;SDS011;47465;43.094;12.434;2022-10-03T15:00:03;6.95;;;4.10;;
61572;SDS011;47465;43.094;12.434;2022-10-03T15:02:32;8.80;;;4.28;;
61572;SDS011;47465;43.094;12.434;2022-10-03T15:05:05;7.93;;;4.57;;
61572;SDS011;47465;43.094;12.434;2022-10-03T15:07:37;7.70;;;4.05;;
61572;SDS011;47465;43.094;12.434;2022-10-03T15:10:06;9.53;;;4.93;;
61572;SDS011;47465;43.094;12.434;2022-10-03T15:12:36;8.30;;;4.47;;
61572;SDS011;47465;43.094;12.434;2022-10-03T15:15:05;11.75;;;4.28;;
61572;SDS011;47465;43.094;12.434;2022-10-03T15:17:42;8.32;;;4.65;;
61572;SDS011;47465;43.094;12.434;2022-10-03T15:20:12;10.88;;;4.22;;
61572;SDS011;47465;43.094;12.434;2022-10-03T15:22:45;9.85;;;4.38;;
61572;SDS011;47465;43.094;12.434;2022-10-03T15:25:15;10.93;;;4.10;;
61572;SDS011;47465;43.094;12.434;2022-10-03T15:27:45;11.95;;;4.50;;
61572;SDS011;47465;43.094;12.434;2022-10-03T15:30:18;7.78;;;4.30;;
61572;SDS011;47465;43.094;12.434;2022-10-03T15:32:46;9.05;;;4.28;;
61572;SDS011;47465;43.094;12.434;2022-10-03T15:35:16;9.68;;;4.78;;
61572;SDS011;47465;43.094;12.434;2022-10-03T15:37:45;9.00;;;4.70;;
61572;SDS011;47465;43.094;12.434;2022-10-03T15:40:18;8.63;;;4.25;;
61572;SDS011;47465;43.094;12.434;2022-10-03T15:42:48;7.05;;;4.57;;
61572;SDS011;47465;43.094;12.434;2022-10-03T15:45:19;6.68;;;4.03;;
61572;SDS011;47465;43.094;12.434;2022-10-03T15:47:50;8.65;;;4.57;;
61572;SDS011;47465;43.094;12.434;2022-10-03T15:50:19;8.57;;;4.38;;
61572;SDS011;47465;43.094;12.434;2022-10-03T15:52:49;9.10;;;4.72;;
61572;SDS011;47465;43.094;12.434;2022-10-03T15:55:18;6.15;;;4.13;;
61572;SDS011;47465;43.094;12.434;2022-10-03T15:57:48;9.20;;;4.15;;
61572;SDS011;47465;43.094;12.434;2022-10-03T16:00:20;10.30;;;4.13;;
61572;SDS011;47465;43.094;12.434;2022-10-03T16:02:52;8.30;;;4.53;;
61572;SDS011;47465;43.094;12.434;2022-10-03T16:05:32;12.02;;;4.70;;
61572;SDS011;47465;43.094;12.434;2022-10-03T16:08:09;9.40;;;4.30;;
61572;SDS011;47465;43.094;12.434;2022-10-03T16:10:55;11.65;;;4.22;;
61572;SDS011;47465;43.094;12.434;2022-10-03T16:13:33;8.02;;;4.68;;
61572;SDS011;47465;43.094;12.434;2022-10-03T16:16:07;9.65;;;4.40;;
61572;SDS011;47465;43.094;12.434;2022-10-03T16:18:42;9.15;;;4.72;;
61572;SDS011;47465;43.094;12.434;2022-10-03T16:21:28;8.45;;;4.95;;
61572;SDS011;47465;43.094;12.434;2022-10-03T16:24:14;10.73;;;4.95;;
61572;SDS011;47465;43.094;12.434;2022-10-03T16:27:03;9.82;;;4.90;;
61572;SDS011;47465;43.094;12.434;2022-10-03T16:29:36;12.07;;;4.88;;
61572;SDS011;47465;43.094;12.434;2022-10-03T16:32:23;15.00;;;4.82;;
61572;SDS011;47465;43.094;12.434;2022-10-03T16:35:13;8.70;;;5.20;;
61572;SDS011;47465;43.094;12.434;2022-10-03T16:38:35;13.35;;;5.95;;
61572;SDS011;47465;43.094;12.434;2022-10-03T16:41:21;10.40;;;5.28;;
61572;SDS011;47465;43.094;12.434;2022-10-03T16:43:55;13.52;;;5.70;;
61572;SDS011;47465;43.094;12.434;2022-10-03T16:46:24;13.95;;;6.28;;
61572;SDS011;47465;43.094;12.434;2022-10-03T16:48:56;14.38;;;6.00;;
61572;SDS011;47465;43.094;12.434;2022-10-03T16:54:59;11.23;;;5.38;;
61572;SDS011;47465;43.094;12.434;2022-10-03T16:57:30;11.55;;;5.70;;
61572;SDS011;47465;43.094;12.434;2022-10-03T17:00:20;11.50;;;6.07;;
61572;SDS011;47465;43.094;12.434;2022-10-03T17:03:15;12.15;;;5.90;;
61572;SDS011;47465;43.094;12.434;2022-10-03T17:05:47;10.45;;;5.40;;
61572;SDS011;47465;43.094;12.434;2022-10-03T17:08:18;11.00;;;5.85;;
61572;SDS011;47465;43.094;12.434;2022-10-03T17:10:51;9.68;;;6.10;;
61572;SDS011;47465;43.094;12.434;2022-10-03T17:13:25;15.40;;;5.80;;
61572;SDS011;47465;43.094;12.434;2022-10-03T17:16:07;12.30;;;5.88;;
61572;SDS011;47465;43.094;12.434;2022-10-03T17:18:39;14.32;;;6.40;;
61572;SDS011;47465;43.094;12.434;2022-10-03T17:21:26;13.15;;;6.18;;
61572;SDS011;47465;43.094;12.434;2022-10-03T17:24:05;14.45;;;6.47;;
61572;SDS011;47465;43.094;12.434;2022-10-03T17:26:40;11.82;;;6.38;;
61572;SDS011;47465;43.094;12.434;2022-10-03T17:29:09;9.20;;;5.88;;
61572;SDS011;47465;43.094;12.434;2022-10-03T17:31:43;10.73;;;6.03;;
61572;SDS011;47465;43.094;12.434;2022-10-03T17:34:13;12.50;;;6.28;;
61572;SDS011;47465;43.094;12.434;2022-10-03T17:40:00;9.32;;;6.50;;
61572;SDS011;47465;43.094;12.434;2022-10-03T17:42:39;11.40;;;6.03;;
61572;SDS011;47465;43.094;12.434;2022-10-03T17:45:10;12.30;;;6.50;;
61572;SDS011;47465;43.094;12.434;2022-10-03T17:47:52;13.82;;;6.32;;
61572;SDS011;47465;43.094;12.434;2022-10-03T17:50:29;11.25;;;6.45;;
61572;SDS011;47465;43.094;12.434;2022-10-03T17:53:10;14.00;;;6.18;;
61572;SDS011;47465;43.094;12.434;2022-10-03T17:55:45;12.85;;;6.78;;
61572;SDS011;47465;43.094;12.434;2022-10-03T17:58:19;10.90;;;6.47;;
61572;SDS011;47465;43.094;12.434;2022-10-03T18:00:54;11.88;;;6.07;;
61572;SDS011;47465;43.094;12.434;2022-10-03T18:03:27;10.98;;;6.88;;
61572;SDS011;47465;43.094;12.434;2022-10-03T18:09:08;11.20;;;7.32;;
61572;SDS011;47465;43.094;12.434;2022-10-03T18:11:46;17.10;;;6.88;;
61572;SDS011;47465;43.094;12.434;2022-10-03T18:14:20;11.70;;;6.93;;
61572;SDS011;47465;43.094;12.434;2022-10-03T18:16:59;14.82;;;6.82;;
61572;SDS011;47465;43.094;12.434;2022-10-03T18:19:33;14.82;;;7.30;;
61572;SDS011;47465;43.094;12.434;2022-10-03T18:22:19;14.60;;;7.65;;
61572;SDS011;47465;43.094;12.434;2022-10-03T18:24:52;11.55;;;6.88;;
61572;SDS011;47465;43.094;12.434;2022-10-03T18:30:22;13.75;;;6.97;;
61572;SDS011;47465;43.094;12.434;2022-10-03T18:33:02;24.52;;;7.38;;
61572;SDS011;47465;43.094;12.434;2022-10-03T18:35:35;16.38;;;7.40;;
61572;SDS011;47465;43.094;12.434;2022-10-03T18:38:04;13.85;;;6.93;;
61572;SDS011;47465;43.094;12.434;2022-10-03T18:40:45;12.95;;;6.57;;
61572;SDS011;47465;43.094;12.434;2022-10-03T18:43:22;12.00;;;7.97;;
61572;SDS011;47465;43.094;12.434;2022-10-03T18:46:09;12.35;;;7.28;;
61572;SDS011;47465;43.094;12.434;2022-10-03T18:48:54;11.57;;;7.28;;
61572;SDS011;47465;43.094;12.434;2022-10-03T18:51:38;11.10;;;6.68;;
61572;SDS011;47465;43.094;12.434;2022-10-03T18:54:27;14.32;;;6.85;;
61572;SDS011;47465;43.094;12.434;2022-10-03T18:57:53;12.43;;;6.70;;
61572;SDS011;47465;43.094;12.434;2022-10-03T19:04:07;18.88;;;6.72;;
61572;SDS011;47465;43.094;12.434;2022-10-03T19:07:22;12.05;;;6.95;;
61572;SDS011;47465;43.094;12.434;2022-10-03T19:10:37;12.45;;;7.18;;
61572;SDS011;47465;43.094;12.434;2022-10-03T19:13:19;11.52;;;6.60;;
61572;SDS011;47465;43.094;12.434;2022-10-03T19:16:09;12.88;;;6.85;;
61572;SDS011;47465;43.094;12.434;2022-10-03T19:19:02;17.10;;;7.13;;
61572;SDS011;47465;43.094;12.434;2022-10-03T19:22:11;11.18;;;6.15;;
61572;SDS011;47465;43.094;12.434;2022-10-03T19:25:21;14.25;;;7.45;;
61572;SDS011;47465;43.094;12.434;2022-10-03T19:28:03;15.52;;;7.22;;
61572;SDS011;47465;43.094;12.434;2022-10-03T19:30:49;12.88;;;6.93;;
61572;SDS011;47465;43.094;12.434;2022-10-03T19:33:47;12.77;;;7.00;;
61572;SDS011;47465;43.094;12.434;2022-10-03T19:37:04;20.00;;;8.90;;
61572;SDS011;47465;43.094;12.434;2022-10-03T19:42:50;13.97;;;7.30;;
61572;SDS011;47465;43.094;12.434;2022-10-03T19:45:43;13.38;;;6.95;;
61572;SDS011;47465;43.094;12.434;2022-10-03T19:48:20;17.90;;;8.10;;
61572;SDS011;47465;43.094;12.434;2022-10-03T19:51:13;14.20;;;7.13;;
61572;SDS011;47465;43.094;12.434;2022-10-03T19:53:51;14.27;;;7.25;;
61572;SDS011;47465;43.094;12.434;2022-10-03T19:56:29;13.13;;;7.00;;
61572;SDS011;47465;43.094;12.434;2022-10-03T19:59:06;12.35;;;6.95;;
61572;SDS011;47465;43.094;12.434;2022-10-03T20:01:42;14.00;;;6.95;;
61572;SDS011;47465;43.094;12.434;2022-10-03T20:04:30;16.30;;;6.65;;